sensor_id;sensor_type;location;lat;lon;timestamp;temperature;humidity
14739;DHT22;7461;52.440;13.540;2023-06-04T00:00:59;11.10;88.20
14739;DHT22;7461;52.440;13.540;2023-06-04T00:03:26;11.10;89.40
14739;DHT22;7461;52.440;13.540;2023-06-04T00:05:53;11.10;90.60
14739;DHT22;7461;52.440;13.540;2023-06-04T00:08:20;11.00;90.70
14739;DHT22;7461;52.440;13.540;2023-06-04T00:10:47;11.10;91.10
14739;DHT22;7461;52.440;13.540;2023-06-04T00:13:14;11.10;91.40
14739;DHT22;7461;52.440;13.540;2023-06-04T00:15:41;11.00;91.40
14739;DHT22;7461;52.440;13.540;2023-06-04T00:18:09;11.10;91.60
14739;DHT22;7461;52.440;13.540;2023-06-04T00:20:39;11.10;92.10
14739;DHT22;7461;52.440;13.540;2023-06-04T00:23:06;11.10;90.00
14739;DHT22;7461;52.440;13.540;2023-06-04T00:25:33;11.00;91.40
14739;DHT22;7461;52.440;13.540;2023-06-04T00:28:00;10.90;90.40
14739;DHT22;7461;52.440;13.540;2023-06-04T00:30:26;10.80;90.40
14739;DHT22;7461;52.440;13.540;2023-06-04T00:32:53;10.70;90.80
14739;DHT22;7461;52.440;13.540;2023-06-04T00:35:22;10.60;91.20
14739;DHT22;7461;52.440;13.540;2023-06-04T00:37:49;10.60;91.50
14739;DHT22;7461;52.440;13.540;2023-06-04T00:40:16;10.50;91.90
14739;DHT22;7461;52.440;13.540;2023-06-04T00:42:44;10.50;94.90
14739;DHT22;7461;52.440;13.540;2023-06-04T00:45:11;10.50;94.10
14739;DHT22;7461;52.440;13.540;2023-06-04T00:47:41;10.40;93.30
14739;DHT22;7461;52.440;13.540;2023-06-04T00:50:09;10.40;93.80
14739;DHT22;7461;52.440;13.540;2023-06-04T00:52:38;10.30;94.60
14739;DHT22;7461;52.440;13.540;2023-06-04T00:55:05;10.30;94.20
14739;DHT22;7461;52.440;13.540;2023-06-04T00:57:32;10.20;95.10
14739;DHT22;7461;52.440;13.540;2023-06-04T00:59:59;10.20;95.00
14739;DHT22;7461;52.440;13.540;2023-06-04T01:02:27;10.10;95.30
14739;DHT22;7461;52.440;13.540;2023-06-04T01:05:06;10.10;95.70
14739;DHT22;7461;52.440;13.540;2023-06-04T01:07:39;10.10;95.70
14739;DHT22;7461;52.440;13.540;2023-06-04T01:10:11;10.00;96.40
14739;DHT22;7461;52.440;13.540;2023-06-04T01:12:39;10.00;97.00
14739;DHT22;7461;52.440;13.540;2023-06-04T01:15:08;10.00;96.90
14739;DHT22;7461;52.440;13.540;2023-06-04T01:17:38;9.90;98.50
14739;DHT22;7461;52.440;13.540;2023-06-04T01:20:19;9.80;98.50
14739;DHT22;7461;52.440;13.540;2023-06-04T01:23:03;9.80;99.90
14739;DHT22;7461;52.440;13.540;2023-06-04T01:25:34;9.70;99.90
14739;DHT22;7461;52.440;13.540;2023-06-04T01:28:03;9.70;99.90
14739;DHT22;7461;52.440;13.540;2023-06-04T01:30:32;9.70;99.90
14739;DHT22;7461;52.440;13.540;2023-06-04T01:33:00;9.80;99.90
14739;DHT22;7461;52.440;13.540;2023-06-04T01:35:28;9.80;99.90
14739;DHT22;7461;52.440;13.540;2023-06-04T01:37:58;9.70;99.90
14739;DHT22;7461;52.440;13.540;2023-06-04T01:40:25;9.70;99.90
14739;DHT22;7461;52.440;13.540;2023-06-04T01:42:52;9.60;99.90
14739;DHT22;7461;52.440;13.540;2023-06-04T01:45:20;9.50;99.90
14739;DHT22;7461;52.440;13.540;2023-06-04T01:47:47;9.50;99.90
14739;DHT22;7461;52.440;13.540;2023-06-04T01:50:14;9.60;99.90
14739;DHT22;7461;52.440;13.540;2023-06-04T01:52:41;9.60;99.90
14739;DHT22;7461;52.440;13.540;2023-06-04T01:55:12;9.60;99.90
14739;DHT22;7461;52.440;13.540;2023-06-04T01:57:40;9.60;99.90
14739;DHT22;7461;52.440;13.540;2023-06-04T02:00:09;9.50;99.90
14739;DHT22;7461;52.440;13.540;2023-06-04T02:02:36;9.50;99.90
14739;DHT22;7461;52.440;13.540;2023-06-04T02:05:04;9.50;99.90
14739;DHT22;7461;52.440;13.540;2023-06-04T02:07:33;9.50;99.90
14739;DHT22;7461;52.440;13.540;2023-06-04T02:10:00;9.40;99.90
14739;DHT22;7461;52.440;13.540;2023-06-04T02:12:28;9.30;99.90
14739;DHT22;7461;52.440;13.540;2023-06-04T02:14:55;9.30;99.90
14739;DHT22;7461;52.440;13.540;2023-06-04T02:17:22;9.20;99.90
14739;DHT22;7461;52.440;13.540;2023-06-04T02:19:51;9.20;99.90
14739;DHT22;7461;52.440;13.540;2023-06-04T02:22:18;9.10;99.90
14739;DHT22;7461;52.440;13.540;2023-06-04T02:24:45;9.10;99.90
14739;DHT22;7461;52.440;13.540;2023-06-04T02:27:13;9.10;99.90
14739;DHT22;7461;52.440;13.540;2023-06-04T02:29:42;9.00;99.90
14739;DHT22;7461;52.440;13.540;2023-06-04T02:32:09;9.00;99.90
14739;DHT22;7461;52.440;13.540;2023-06-04T02:34:36;9.00;99.90
14739;DHT22;7461;52.440;13.540;2023-06-04T02:37:04;8.90;99.90
14739;DHT22;7461;52.440;13.540;2023-06-04T02:39:31;8.90;99.90
14739;DHT22;7461;52.440;13.540;2023-06-04T02:41:58;8.90;99.90
14739;DHT22;7461;52.440;13.540;2023-06-04T02:44:25;8.80;99.90
14739;DHT22;7461;52.440;13.540;2023-06-04T02:46:53;8.80;99.90
14739;DHT22;7461;52.440;13.540;2023-06-04T02:49:20;8.80;99.90
14739;DHT22;7461;52.440;13.540;2023-06-04T02:51:47;8.70;99.90
14739;DHT22;7461;52.440;13.540;2023-06-04T02:54:14;8.70;99.90
14739;DHT22;7461;52.440;13.540;2023-06-04T02:56:41;8.70;99.90
14739;DHT22;7461;52.440;13.540;2023-06-04T02:59:09;8.60;99.90
14739;DHT22;7461;52.440;13.540;2023-06-04T03:01:36;8.60;99.90
14739;DHT22;7461;52.440;13.540;2023-06-04T03:04:05;8.60;99.90
14739;DHT22;7461;52.440;13.540;2023-06-04T03:06:36;8.60;99.90
14739;DHT22;7461;52.440;13.540;2023-06-04T03:09:04;8.70;99.90
14739;DHT22;7461;52.440;13.540;2023-06-04T03:11:32;8.70;99.90
14739;DHT22;7461;52.440;13.540;2023-06-04T03:13:59;8.80;99.90
14739;DHT22;7461;52.440;13.540;2023-06-04T03:16:26;8.80;99.90
14739;DHT22;7461;52.440;13.540;2023-06-04T03:18:53;8.80;99.90
14739;DHT22;7461;52.440;13.540;2023-06-04T03:21:22;8.80;99.90
14739;DHT22;7461;52.440;13.540;2023-06-04T03:23:50;8.70;99.90
14739;DHT22;7461;52.440;13.540;2023-06-04T03:26:17;8.60;99.90
14739;DHT22;7461;52.440;13.540;2023-06-04T03:28:44;8.60;99.90
14739;DHT22;7461;52.440;13.540;2023-06-04T03:31:11;8.60;99.90
14739;DHT22;7461;52.440;13.540;2023-06-04T03:33:38;8.70;99.90
14739;DHT22;7461;52.440;13.540;2023-06-04T03:36:05;8.70;99.90
14739;DHT22;7461;52.440;13.540;2023-06-04T03:38:33;8.70;99.90
14739;DHT22;7461;52.440;13.540;2023-06-04T03:41:00;8.70;99.90
14739;DHT22;7461;52.440;13.540;2023-06-04T03:43:28;8.70;99.90
14739;DHT22;7461;52.440;13.540;2023-06-04T03:45:55;8.80;99.90
14739;DHT22;7461;52.440;13.540;2023-06-04T03:48:21;8.70;99.90
14739;DHT22;7461;52.440;13.540;2023-06-04T03:50:48;8.80;99.90
14739;DHT22;7461;52.440;13.540;2023-06-04T03:53:16;8.80;99.90
14739;DHT22;7461;52.440;13.540;2023-06-04T03:55:44;8.80;99.90
14739;DHT22;7461;52.440;13.540;2023-06-04T03:58:11;8.90;99.90
14739;DHT22;7461;52.440;13.540;2023-06-04T04:00:40;9.00;99.90
14739;DHT22;7461;52.440;13.540;2023-06-04T04:03:07;9.10;99.90
14739;DHT22;7461;52.440;13.540;2023-06-04T04:05:35;9.20;99.90
14739;DHT22;7461;52.440;13.540;2023-06-04T04:08:02;9.20;99.90
14739;DHT22;7461;52.440;13.540;2023-06-04T04:10:29;9.30;99.90
14739;DHT22;7461;52.440;13.540;2023-06-04T04:12:58;9.30;99.90
14739;DHT22;7461;52.440;13.540;2023-06-04T04:15:25;9.40;99.90
14739;DHT22;7461;52.440;13.540;2023-06-04T04:17:52;9.40;99.90
14739;DHT22;7461;52.440;13.540;2023-06-04T04:20:19;9.40;99.90
14739;DHT22;7461;52.440;13.540;2023-06-04T04:22:46;9.50;99.90
14739;DHT22;7461;52.440;13.540;2023-06-04T04:25:13;9.60;99.90
14739;DHT22;7461;52.440;13.540;2023-06-04T04:27:40;9.70;99.90
14739;DHT22;7461;52.440;13.540;2023-06-04T04:30:09;9.80;99.90
14739;DHT22;7461;52.440;13.540;2023-06-04T04:32:38;9.90;99.90
14739;DHT22;7461;52.440;13.540;2023-06-04T04:35:06;9.90;99.90
14739;DHT22;7461;52.440;13.540;2023-06-04T04:37:34;10.00;99.90
14739;DHT22;7461;52.440;13.540;2023-06-04T04:40:06;10.00;99.90
14739;DHT22;7461;52.440;13.540;2023-06-04T04:42:35;10.00;99.90
14739;DHT22;7461;52.440;13.540;2023-06-04T04:45:03;10.10;99.90
14739;DHT22;7461;52.440;13.540;2023-06-04T04:47:31;10.20;99.90
14739;DHT22;7461;52.440;13.540;2023-06-04T04:49:58;10.20;99.90
14739;DHT22;7461;52.440;13.540;2023-06-04T04:52:25;10.30;99.90
14739;DHT22;7461;52.440;13.540;2023-06-04T04:54:52;10.40;99.90
14739;DHT22;7461;52.440;13.540;2023-06-04T04:57:21;10.50;99.90
14739;DHT22;7461;52.440;13.540;2023-06-04T04:59:48;10.60;99.90
14739;DHT22;7461;52.440;13.540;2023-06-04T05:02:15;10.80;99.90
14739;DHT22;7461;52.440;13.540;2023-06-04T05:04:44;10.80;99.90
14739;DHT22;7461;52.440;13.540;2023-06-04T05:07:11;10.90;99.90
14739;DHT22;7461;52.440;13.540;2023-06-04T05:09:37;11.00;99.90
14739;DHT22;7461;52.440;13.540;2023-06-04T05:12:05;11.10;99.90
14739;DHT22;7461;52.440;13.540;2023-06-04T05:14:32;11.20;99.90
14739;DHT22;7461;52.440;13.540;2023-06-04T05:17:01;11.30;99.90
14739;DHT22;7461;52.440;13.540;2023-06-04T05:19:28;11.40;99.90
14739;DHT22;7461;52.440;13.540;2023-06-04T05:21:59;11.50;99.90
14739;DHT22;7461;52.440;13.540;2023-06-04T05:24:27;11.60;99.90
14739;DHT22;7461;52.440;13.540;2023-06-04T05:26:54;11.70;99.90
14739;DHT22;7461;52.440;13.540;2023-06-04T05:29:22;11.70;99.90
14739;DHT22;7461;52.440;13.540;2023-06-04T05:31:49;11.90;99.90
14739;DHT22;7461;52.440;13.540;2023-06-04T05:34:16;12.00;99.90
14739;DHT22;7461;52.440;13.540;2023-06-04T05:36:43;12.10;99.90
14739;DHT22;7461;52.440;13.540;2023-06-04T05:39:12;12.20;99.90
14739;DHT22;7461;52.440;13.540;2023-06-04T05:41:39;12.30;99.90
14739;DHT22;7461;52.440;13.540;2023-06-04T05:44:07;12.40;99.90
14739;DHT22;7461;52.440;13.540;2023-06-04T05:46:34;12.50;99.90
14739;DHT22;7461;52.440;13.540;2023-06-04T05:49:02;12.60;99.90
14739;DHT22;7461;52.440;13.540;2023-06-04T05:51:29;12.70;99.90
14739;DHT22;7461;52.440;13.540;2023-06-04T05:53:56;12.80;99.90
14739;DHT22;7461;52.440;13.540;2023-06-04T05:56:25;12.90;99.90
14739;DHT22;7461;52.440;13.540;2023-06-04T05:58:52;13.00;99.90
14739;DHT22;7461;52.440;13.540;2023-06-04T06:01:19;13.10;99.90
14739;DHT22;7461;52.440;13.540;2023-06-04T06:03:47;13.20;99.90
14739;DHT22;7461;52.440;13.540;2023-06-04T06:06:14;13.30;99.90
14739;DHT22;7461;52.440;13.540;2023-06-04T06:08:41;13.40;99.90
14739;DHT22;7461;52.440;13.540;2023-06-04T06:11:09;13.50;99.90
14739;DHT22;7461;52.440;13.540;2023-06-04T06:13:37;13.60;99.90
14739;DHT22;7461;52.440;13.540;2023-06-04T06:16:04;13.70;99.90
14739;DHT22;7461;52.440;13.540;2023-06-04T06:18:31;13.80;99.20
14739;DHT22;7461;52.440;13.540;2023-06-04T06:20:58;13.80;98.40
14739;DHT22;7461;52.440;13.540;2023-06-04T06:23:25;14.00;99.00
14739;DHT22;7461;52.440;13.540;2023-06-04T06:25:52;14.10;98.10
14739;DHT22;7461;52.440;13.540;2023-06-04T06:28:19;14.20;97.20
14739;DHT22;7461;52.440;13.540;2023-06-04T06:30:48;14.30;97.40
14739;DHT22;7461;52.440;13.540;2023-06-04T06:33:15;14.50;95.60
14739;DHT22;7461;52.440;13.540;2023-06-04T06:35:47;14.60;94.00
14739;DHT22;7461;52.440;13.540;2023-06-04T06:38:14;14.70;92.80
14739;DHT22;7461;52.440;13.540;2023-06-04T06:40:41;14.80;91.90
14739;DHT22;7461;52.440;13.540;2023-06-04T06:43:08;15.00;89.80
14739;DHT22;7461;52.440;13.540;2023-06-04T06:45:35;15.10;91.80
14739;DHT22;7461;52.440;13.540;2023-06-04T06:48:04;15.20;90.70
14739;DHT22;7461;52.440;13.540;2023-06-04T06:50:31;15.30;88.50
14739;DHT22;7461;52.440;13.540;2023-06-04T06:52:59;15.40;84.90
14739;DHT22;7461;52.440;13.540;2023-06-04T06:55:25;15.60;85.40
14739;DHT22;7461;52.440;13.540;2023-06-04T06:57:52;15.70;83.70
14739;DHT22;7461;52.440;13.540;2023-06-04T07:00:19;15.70;83.20
14739;DHT22;7461;52.440;13.540;2023-06-04T07:02:46;15.90;79.60
14739;DHT22;7461;52.440;13.540;2023-06-04T07:05:15;16.00;77.20
14739;DHT22;7461;52.440;13.540;2023-06-04T07:07:43;16.20;78.70
14739;DHT22;7461;52.440;13.540;2023-06-04T07:10:10;16.30;79.30
14739;DHT22;7461;52.440;13.540;2023-06-04T07:12:37;16.40;72.00
14739;DHT22;7461;52.440;13.540;2023-06-04T07:15:05;16.50;70.00
14739;DHT22;7461;52.440;13.540;2023-06-04T07:17:33;16.60;69.00
14739;DHT22;7461;52.440;13.540;2023-06-04T07:20:00;16.70;67.90
14739;DHT22;7461;52.440;13.540;2023-06-04T07:22:31;16.70;65.00
14739;DHT22;7461;52.440;13.540;2023-06-04T07:24:57;16.80;64.70
14739;DHT22;7461;52.440;13.540;2023-06-04T07:27:25;16.90;60.40
14739;DHT22;7461;52.440;13.540;2023-06-04T07:29:52;17.00;60.80
14739;DHT22;7461;52.440;13.540;2023-06-04T07:32:19;17.10;61.10
14739;DHT22;7461;52.440;13.540;2023-06-04T07:34:46;17.10;59.20
14739;DHT22;7461;52.440;13.540;2023-06-04T07:37:13;17.30;62.90
14739;DHT22;7461;52.440;13.540;2023-06-04T07:42:10;17.60;59.00
14739;DHT22;7461;52.440;13.540;2023-06-04T07:44:37;17.70;59.60
14739;DHT22;7461;52.440;13.540;2023-06-04T07:47:04;17.80;57.30
14739;DHT22;7461;52.440;13.540;2023-06-04T07:49:31;17.90;60.70
14739;DHT22;7461;52.440;13.540;2023-06-04T07:51:58;18.00;56.10
14739;DHT22;7461;52.440;13.540;2023-06-04T07:54:25;18.10;55.80
14739;DHT22;7461;52.440;13.540;2023-06-04T07:56:52;18.20;57.20
14739;DHT22;7461;52.440;13.540;2023-06-04T07:59:23;18.20;56.20
14739;DHT22;7461;52.440;13.540;2023-06-04T08:01:50;18.20;54.90
14739;DHT22;7461;52.440;13.540;2023-06-04T08:04:17;18.30;54.70
14739;DHT22;7461;52.440;13.540;2023-06-04T08:06:44;18.30;56.00
14739;DHT22;7461;52.440;13.540;2023-06-04T08:09:12;18.50;55.40
14739;DHT22;7461;52.440;13.540;2023-06-04T08:11:40;18.60;54.20
14739;DHT22;7461;52.440;13.540;2023-06-04T08:14:08;18.70;52.30
14739;DHT22;7461;52.440;13.540;2023-06-04T08:16:36;18.90;53.50
14739;DHT22;7461;52.440;13.540;2023-06-04T08:19:03;19.10;57.00
14739;DHT22;7461;52.440;13.540;2023-06-04T08:21:30;19.10;51.70
14739;DHT22;7461;52.440;13.540;2023-06-04T08:23:57;19.10;53.20
14739;DHT22;7461;52.440;13.540;2023-06-04T08:26:24;19.10;51.80
14739;DHT22;7461;52.440;13.540;2023-06-04T08:28:52;19.10;51.40
14739;DHT22;7461;52.440;13.540;2023-06-04T08:31:19;19.20;49.20
14739;DHT22;7461;52.440;13.540;2023-06-04T08:33:48;19.20;49.20
14739;DHT22;7461;52.440;13.540;2023-06-04T08:36:15;19.20;50.10
14739;DHT22;7461;52.440;13.540;2023-06-04T08:38:42;19.20;49.40
14739;DHT22;7461;52.440;13.540;2023-06-04T08:41:13;19.20;49.60
14739;DHT22;7461;52.440;13.540;2023-06-04T08:43:43;19.20;52.30
14739;DHT22;7461;52.440;13.540;2023-06-04T08:46:11;19.40;52.10
14739;DHT22;7461;52.440;13.540;2023-06-04T08:48:38;19.50;50.00
14739;DHT22;7461;52.440;13.540;2023-06-04T08:51:10;19.40;49.60
14739;DHT22;7461;52.440;13.540;2023-06-04T08:53:38;19.40;49.40
14739;DHT22;7461;52.440;13.540;2023-06-04T08:56:05;19.50;51.50
14739;DHT22;7461;52.440;13.540;2023-06-04T08:58:32;19.70;50.90
14739;DHT22;7461;52.440;13.540;2023-06-04T09:01:00;19.90;52.10
14739;DHT22;7461;52.440;13.540;2023-06-04T09:03:28;20.10;51.80
14739;DHT22;7461;52.440;13.540;2023-06-04T09:05:57;20.30;50.50
14739;DHT22;7461;52.440;13.540;2023-06-04T09:08:27;20.50;51.20
14739;DHT22;7461;52.440;13.540;2023-06-04T09:10:58;20.70;51.50
14739;DHT22;7461;52.440;13.540;2023-06-04T09:13:29;20.90;51.00
14739;DHT22;7461;52.440;13.540;2023-06-04T09:16:00;21.00;51.90
14739;DHT22;7461;52.440;13.540;2023-06-04T09:18:28;21.00;47.70
14739;DHT22;7461;52.440;13.540;2023-06-04T09:21:02;20.80;47.50
14739;DHT22;7461;52.440;13.540;2023-06-04T09:23:31;20.60;47.00
14739;DHT22;7461;52.440;13.540;2023-06-04T09:26:06;20.70;49.30
14739;DHT22;7461;52.440;13.540;2023-06-04T09:28:34;20.60;49.30
14739;DHT22;7461;52.440;13.540;2023-06-04T09:31:01;20.70;48.30
14739;DHT22;7461;52.440;13.540;2023-06-04T09:33:28;20.70;48.40
14739;DHT22;7461;52.440;13.540;2023-06-04T09:35:56;20.60;47.00
14739;DHT22;7461;52.440;13.540;2023-06-04T09:38:23;20.70;49.50
14739;DHT22;7461;52.440;13.540;2023-06-04T09:41:00;21.00;48.30
14739;DHT22;7461;52.440;13.540;2023-06-04T09:43:30;21.20;47.80
14739;DHT22;7461;52.440;13.540;2023-06-04T09:46:08;21.10;50.40
14739;DHT22;7461;52.440;13.540;2023-06-04T09:48:36;21.30;45.70
14739;DHT22;7461;52.440;13.540;2023-06-04T09:51:07;21.30;48.50
14739;DHT22;7461;52.440;13.540;2023-06-04T09:53:34;21.30;46.00
14739;DHT22;7461;52.440;13.540;2023-06-04T09:56:04;21.40;44.60
14739;DHT22;7461;52.440;13.540;2023-06-04T09:58:32;21.60;48.90
14739;DHT22;7461;52.440;13.540;2023-06-04T10:01:01;21.60;45.10
14739;DHT22;7461;52.440;13.540;2023-06-04T10:03:30;21.70;47.40
14739;DHT22;7461;52.440;13.540;2023-06-04T10:06:00;21.80;45.50
14739;DHT22;7461;52.440;13.540;2023-06-04T10:08:29;21.90;45.30
14739;DHT22;7461;52.440;13.540;2023-06-04T10:10:58;21.90;47.60
14739;DHT22;7461;52.440;13.540;2023-06-04T10:13:29;21.90;46.20
14739;DHT22;7461;52.440;13.540;2023-06-04T10:15:57;22.00;46.40
14739;DHT22;7461;52.440;13.540;2023-06-04T10:18:27;22.00;44.80
14739;DHT22;7461;52.440;13.540;2023-06-04T10:20:55;22.00;45.30
14739;DHT22;7461;52.440;13.540;2023-06-04T10:23:23;22.10;43.70
14739;DHT22;7461;52.440;13.540;2023-06-04T10:25:51;21.80;44.10
14739;DHT22;7461;52.440;13.540;2023-06-04T10:28:19;21.60;44.10
14739;DHT22;7461;52.440;13.540;2023-06-04T10:30:49;21.50;43.90
14739;DHT22;7461;52.440;13.540;2023-06-04T10:33:18;21.50;45.10
14739;DHT22;7461;52.440;13.540;2023-06-04T10:35:50;21.50;45.10
14739;DHT22;7461;52.440;13.540;2023-06-04T10:38:17;21.90;47.70
14739;DHT22;7461;52.440;13.540;2023-06-04T10:40:44;22.20;45.40
14739;DHT22;7461;52.440;13.540;2023-06-04T10:43:12;22.20;44.00
14739;DHT22;7461;52.440;13.540;2023-06-04T10:45:41;22.00;42.60
14739;DHT22;7461;52.440;13.540;2023-06-04T10:48:12;22.10;43.50
14739;DHT22;7461;52.440;13.540;2023-06-04T10:50:48;21.90;42.80
14739;DHT22;7461;52.440;13.540;2023-06-04T10:53:17;21.70;42.50
14739;DHT22;7461;52.440;13.540;2023-06-04T10:55:45;21.60;42.70
14739;DHT22;7461;52.440;13.540;2023-06-04T10:58:12;21.50;43.30
14739;DHT22;7461;52.440;13.540;2023-06-04T11:00:41;21.50;43.90
14739;DHT22;7461;52.440;13.540;2023-06-04T11:03:11;21.50;43.20
14739;DHT22;7461;52.440;13.540;2023-06-04T11:05:40;21.60;43.60
14739;DHT22;7461;52.440;13.540;2023-06-04T11:08:08;21.70;45.40
14739;DHT22;7461;52.440;13.540;2023-06-04T11:10:36;21.90;45.60
14739;DHT22;7461;52.440;13.540;2023-06-04T11:13:04;22.10;45.30
14739;DHT22;7461;52.440;13.540;2023-06-04T11:15:38;22.20;44.30
14739;DHT22;7461;52.440;13.540;2023-06-04T11:18:05;22.20;43.60
14739;DHT22;7461;52.440;13.540;2023-06-04T11:20:34;22.20;44.40
14739;DHT22;7461;52.440;13.540;2023-06-04T11:23:01;22.20;45.20
14739;DHT22;7461;52.440;13.540;2023-06-04T11:25:29;22.30;42.30
14739;DHT22;7461;52.440;13.540;2023-06-04T11:28:27;22.30;43.40
14739;DHT22;7461;52.440;13.540;2023-06-04T11:30:58;22.20;42.70
14739;DHT22;7461;52.440;13.540;2023-06-04T11:33:25;22.00;42.70
14739;DHT22;7461;52.440;13.540;2023-06-04T11:35:53;22.00;43.60
14739;DHT22;7461;52.440;13.540;2023-06-04T11:38:20;21.90;44.20
14739;DHT22;7461;52.440;13.540;2023-06-04T11:44:09;22.00;43.90
14739;DHT22;7461;52.440;13.540;2023-06-04T11:46:40;22.00;43.20
14739;DHT22;7461;52.440;13.540;2023-06-04T11:49:11;21.90;42.20
14739;DHT22;7461;52.440;13.540;2023-06-04T11:51:45;21.90;42.50
14739;DHT22;7461;52.440;13.540;2023-06-04T11:54:13;21.70;42.30
14739;DHT22;7461;52.440;13.540;2023-06-04T11:56:41;21.80;42.60
14739;DHT22;7461;52.440;13.540;2023-06-04T11:59:10;21.80;42.50
14739;DHT22;7461;52.440;13.540;2023-06-04T12:01:39;21.90;44.30
14739;DHT22;7461;52.440;13.540;2023-06-04T12:04:12;22.10;43.50
14739;DHT22;7461;52.440;13.540;2023-06-04T12:06:50;22.20;43.40
14739;DHT22;7461;52.440;13.540;2023-06-04T12:09:20;22.30;42.50
14739;DHT22;7461;52.440;13.540;2023-06-04T12:11:48;22.30;42.60
14739;DHT22;7461;52.440;13.540;2023-06-04T12:14:16;22.30;42.10
14739;DHT22;7461;52.440;13.540;2023-06-04T12:16:43;22.10;41.40
14739;DHT22;7461;52.440;13.540;2023-06-04T12:19:11;22.10;40.90
14739;DHT22;7461;52.440;13.540;2023-06-04T12:21:40;21.90;41.60
14739;DHT22;7461;52.440;13.540;2023-06-04T12:24:09;21.90;42.20
14739;DHT22;7461;52.440;13.540;2023-06-04T12:26:37;22.10;43.10
14739;DHT22;7461;52.440;13.540;2023-06-04T12:29:10;22.20;42.60
14739;DHT22;7461;52.440;13.540;2023-06-04T12:31:39;22.30;41.70
14739;DHT22;7461;52.440;13.540;2023-06-04T12:34:06;22.30;43.10
14739;DHT22;7461;52.440;13.540;2023-06-04T12:36:33;22.40;42.40
14739;DHT22;7461;52.440;13.540;2023-06-04T12:39:03;22.40;42.00
14739;DHT22;7461;52.440;13.540;2023-06-04T12:41:31;22.40;43.30
14739;DHT22;7461;52.440;13.540;2023-06-04T12:43:59;22.40;41.10
14739;DHT22;7461;52.440;13.540;2023-06-04T12:46:29;22.30;42.00
14739;DHT22;7461;52.440;13.540;2023-06-04T12:48:56;22.20;41.30
14739;DHT22;7461;52.440;13.540;2023-06-04T12:51:23;22.30;41.60
14739;DHT22;7461;52.440;13.540;2023-06-04T12:53:49;22.40;41.90
14739;DHT22;7461;52.440;13.540;2023-06-04T12:56:18;22.50;44.10
14739;DHT22;7461;52.440;13.540;2023-06-04T12:58:45;22.60;43.10
14739;DHT22;7461;52.440;13.540;2023-06-04T13:01:12;22.60;42.10
14739;DHT22;7461;52.440;13.540;2023-06-04T13:03:40;22.70;42.20
14739;DHT22;7461;52.440;13.540;2023-06-04T13:06:07;22.80;41.50
14739;DHT22;7461;52.440;13.540;2023-06-04T13:08:35;22.70;41.50
14739;DHT22;7461;52.440;13.540;2023-06-04T13:11:03;22.70;41.90
14739;DHT22;7461;52.440;13.540;2023-06-04T13:13:36;22.70;41.30
14739;DHT22;7461;52.440;13.540;2023-06-04T13:16:04;22.70;42.20
14739;DHT22;7461;52.440;13.540;2023-06-04T13:18:31;22.80;40.90
14739;DHT22;7461;52.440;13.540;2023-06-04T13:20:58;22.70;41.10
14739;DHT22;7461;52.440;13.540;2023-06-04T13:23:24;22.60;41.40
14739;DHT22;7461;52.440;13.540;2023-06-04T13:25:51;22.60;41.70
14739;DHT22;7461;52.440;13.540;2023-06-04T13:28:18;22.50;41.20
14739;DHT22;7461;52.440;13.540;2023-06-04T13:30:47;22.50;41.30
14739;DHT22;7461;52.440;13.540;2023-06-04T13:33:14;22.40;41.20
14739;DHT22;7461;52.440;13.540;2023-06-04T13:35:42;22.40;41.40
14739;DHT22;7461;52.440;13.540;2023-06-04T13:38:10;22.40;41.80
14739;DHT22;7461;52.440;13.540;2023-06-04T13:40:38;22.40;41.60
14739;DHT22;7461;52.440;13.540;2023-06-04T13:43:05;22.40;42.90
14739;DHT22;7461;52.440;13.540;2023-06-04T13:45:32;22.50;43.00
14739;DHT22;7461;52.440;13.540;2023-06-04T13:48:01;22.70;42.70
14739;DHT22;7461;52.440;13.540;2023-06-04T13:50:31;22.80;42.80
14739;DHT22;7461;52.440;13.540;2023-06-04T13:52:58;22.90;42.90
14739;DHT22;7461;52.440;13.540;2023-06-04T13:55:25;23.00;41.50
14739;DHT22;7461;52.440;13.540;2023-06-04T13:57:52;22.90;41.20
14739;DHT22;7461;52.440;13.540;2023-06-04T14:00:19;22.90;41.10
14739;DHT22;7461;52.440;13.540;2023-06-04T14:02:47;23.00;41.80
14739;DHT22;7461;52.440;13.540;2023-06-04T14:05:16;23.10;40.40
14739;DHT22;7461;52.440;13.540;2023-06-04T14:07:43;22.90;40.50
14739;DHT22;7461;52.440;13.540;2023-06-04T14:10:11;22.90;40.30
14739;DHT22;7461;52.440;13.540;2023-06-04T14:12:40;22.70;40.70
14739;DHT22;7461;52.440;13.540;2023-06-04T14:15:08;22.80;41.30
14739;DHT22;7461;52.440;13.540;2023-06-04T14:17:36;23.00;42.00
14739;DHT22;7461;52.440;13.540;2023-06-04T14:20:04;23.00;41.40
14739;DHT22;7461;52.440;13.540;2023-06-04T14:22:34;23.00;40.30
14739;DHT22;7461;52.440;13.540;2023-06-04T14:25:02;23.10;41.40
14739;DHT22;7461;52.440;13.540;2023-06-04T14:27:29;23.10;42.10
14739;DHT22;7461;52.440;13.540;2023-06-04T14:29:56;23.10;39.60
14739;DHT22;7461;52.440;13.540;2023-06-04T14:32:23;23.00;40.70
14739;DHT22;7461;52.440;13.540;2023-06-04T14:34:50;23.20;41.70
14739;DHT22;7461;52.440;13.540;2023-06-04T14:37:17;23.20;39.90
14739;DHT22;7461;52.440;13.540;2023-06-04T14:39:47;23.20;40.90
14739;DHT22;7461;52.440;13.540;2023-06-04T14:42:15;23.20;40.50
14739;DHT22;7461;52.440;13.540;2023-06-04T14:44:42;23.10;41.40
14739;DHT22;7461;52.440;13.540;2023-06-04T14:47:10;23.00;42.80
14739;DHT22;7461;52.440;13.540;2023-06-04T14:49:37;22.90;41.20
14739;DHT22;7461;52.440;13.540;2023-06-04T14:52:04;22.90;41.80
14739;DHT22;7461;52.440;13.540;2023-06-04T14:54:32;22.80;41.50
14739;DHT22;7461;52.440;13.540;2023-06-04T14:57:00;22.70;40.20
14739;DHT22;7461;52.440;13.540;2023-06-04T14:59:28;22.60;41.20
14739;DHT22;7461;52.440;13.540;2023-06-04T15:01:55;22.50;41.00
14739;DHT22;7461;52.440;13.540;2023-06-04T15:04:22;22.60;41.10
14739;DHT22;7461;52.440;13.540;2023-06-04T15:06:49;22.60;40.40
14739;DHT22;7461;52.440;13.540;2023-06-04T15:09:17;22.70;41.90
14739;DHT22;7461;52.440;13.540;2023-06-04T15:11:44;22.70;42.00
14739;DHT22;7461;52.440;13.540;2023-06-04T15:14:12;22.80;42.70
14739;DHT22;7461;52.440;13.540;2023-06-04T15:16:39;22.90;42.00
14739;DHT22;7461;52.440;13.540;2023-06-04T15:19:06;22.90;44.00
14739;DHT22;7461;52.440;13.540;2023-06-04T15:21:34;23.00;41.70
14739;DHT22;7461;52.440;13.540;2023-06-04T15:24:01;23.00;41.20
14739;DHT22;7461;52.440;13.540;2023-06-04T15:26:28;23.10;41.00
14739;DHT22;7461;52.440;13.540;2023-06-04T15:28:55;23.00;40.80
14739;DHT22;7461;52.440;13.540;2023-06-04T15:31:24;23.00;40.20
14739;DHT22;7461;52.440;13.540;2023-06-04T15:33:52;22.90;40.90
14739;DHT22;7461;52.440;13.540;2023-06-04T15:36:20;22.80;41.40
14739;DHT22;7461;52.440;13.540;2023-06-04T15:38:48;22.90;41.20
14739;DHT22;7461;52.440;13.540;2023-06-04T15:41:17;22.90;42.00
14739;DHT22;7461;52.440;13.540;2023-06-04T15:43:44;22.90;41.60
14739;DHT22;7461;52.440;13.540;2023-06-04T15:46:11;22.80;40.60